Аэропорт: Основа. Харьков

ICAO: UKHH

METAR:
2022-01-28 08:00:00
UKHH 280800Z 19005MPS 5000 -SN BR BKN006 OVC016 M05/M06 Q1011 TEMPO 1100 FZRA SHSN BKN013CB
METAR:
2022-01-28 05:58:00
TAF COR UKHH 280558Z 2806/2906 20006G12MPS 2100 -SN BR OVC005 TX00/2818Z TNM05/2806Z TEMPO 2806/2815 1100 FZRA SHSN BKN003 BKN013CB PROB40 TEMPO 2806/2815 22009G16MPS